Time;durP1;ratioP1;P1;durP2;ratioP2;P2;SDS_P1;SDS_P2;PMS_P1;PMS_P2;Temp;Humidity;BMP_temperature;BMP_pressure;BME280_temperature;BME280_humidity;BME280_pressure;Samples;Min_cycle;Max_cycle;Signal;HPM_P1;HPM_P2
2022/04/22 00:00:00;;;;;;;18.15;13.90;;;;;;;9.48;67.53;100428.94;4999037;28;20489;-76
2022/04/22 00:02:26;;;;;;;17.13;12.35;;;;;;;9.43;65.71;100410.59;5016886;28;20515;-75
2022/04/22 00:04:52;;;;;;;14.55;10.23;;;;;;;9.57;64.48;100407.16;5013935;28;20677;-75
2022/04/22 00:07:18;;;;;;;15.68;10.73;;;;;;;9.59;63.01;100380.09;4997659;28;20048;-76
2022/04/22 00:09:46;;;;;;;11.10;9.20;;;;;;;9.57;63.95;100397.56;5015003;28;20599;-76
2022/04/22 00:12:11;;;;;;;13.95;10.70;;;;;;;9.63;62.22;100375.78;4997346;28;20828;-75
2022/04/22 00:14:37;;;;;;;14.15;10.40;;;;;;;9.93;61.75;100391.56;5015736;28;20033;-75
2022/04/22 00:17:03;;;;;;;16.15;10.02;;;;;;;10.01;62.15;100415.16;5017166;28;20049;-76
2022/04/22 00:19:29;;;;;;;12.95;9.98;;;;;;;9.80;62.57;100396.78;5017742;28;20512;-76
2022/04/22 00:21:55;;;;;;;13.38;9.88;;;;;;;9.71;62.75;100388.00;5013357;28;20072;-76
2022/04/22 00:24:21;;;;;;;13.10;9.45;;;;;;;9.96;61.88;100431.78;5017449;28;20033;-75
2022/04/22 00:26:46;;;;;;;13.18;9.13;;;;;;;9.83;62.56;100408.16;5015800;28;20045;-76
2022/04/22 00:29:12;;;;;;;11.75;10.15;;;;;;;9.84;63.48;100409.03;4999909;28;20057;-75
2022/04/22 00:31:38;;;;;;;11.48;9.43;;;;;;;9.81;62.76;100443.97;5016785;28;20355;-76
2022/04/22 00:34:04;;;;;;;13.88;10.77;;;;;;;9.59;64.80;100401.06;5017662;28;20144;-75
2022/04/22 00:36:30;;;;;;;14.32;11.45;;;;;;;9.78;64.82;100427.34;5016980;28;20453;-75
2022/04/22 00:38:56;;;;;;;12.32;10.13;;;;;;;9.60;67.03;100425.50;4987321;28;20037;-75
2022/04/22 00:41:28;;;;;;;21.60;11.77;;;;;;;9.56;68.51;100442.09;5015859;28;20493;-75
2022/04/22 00:43:54;;;;;;;11.23;9.95;;;;;;;9.56;67.24;100432.50;5017908;28;20052;-75
2022/04/22 00:46:20;;;;;;;19.13;12.25;;;;;;;9.05;68.78;100400.81;5000176;28;20425;-75
2022/04/22 00:48:45;;;;;;;15.18;13.27;;;;;;;9.49;68.90;100428.97;4999536;28;20037;-76
2022/04/22 00:51:12;;;;;;;16.13;13.82;;;;;;;9.42;69.24;100421.97;5018915;28;20243;-75
2022/04/22 00:53:40;;;;;;;19.02;15.77;;;;;;;9.16;69.84;100386.91;5015415;28;20037;-75
2022/04/22 00:56:12;;;;;;;19.75;13.55;;;;;;;9.18;70.31;100391.28;4999024;28;20128;-75
2022/04/22 00:58:43;;;;;;;16.75;14.05;;;;;;;9.24;71.40;100417.50;5015845;28;20041;-75
2022/04/22 01:01:09;;;;;;;16.13;13.85;;;;;;;9.42;72.61;100428.94;5016224;28;20087;-75
2022/04/22 01:03:34;;;;;;;25.70;17.58;;;;;;;9.34;72.38;100441.09;5019308;28;20045;-75
2022/04/22 01:11:32;;;;;;;23.48;17.60;;;;;;;8.83;75.65;100436.44;5001826;28;20491;-76
2022/04/22 01:14:06;;;;;;;20.08;17.20;;;;;;;8.45;75.60;100389.03;5013735;28;20046;-76
2022/04/22 01:16:32;;;;;;;22.67;18.17;;;;;;;8.72;75.72;100432.00;5000080;28;20047;-75
2022/04/22 01:18:58;;;;;;;21.42;16.83;;;;;;;8.90;75.22;100432.13;5017542;28;20050;-75
2022/04/22 01:21:23;;;;;;;23.67;18.65;;;;;;;8.62;76.57;100420.59;5001216;28;20036;-75
2022/04/22 01:23:50;;;;;;;25.88;19.13;;;;;;;8.11;77.09;100391.31;4999044;28;20049;-75
2022/04/22 01:26:17;;;;;;;26.67;17.63;;;;;;;8.37;76.71;100411.59;5014734;28;20144;-75
2022/04/22 01:28:43;;;;;;;27.73;20.55;;;;;;;8.43;77.40;100441.34;5014732;28;20107;-74
2022/04/22 01:31:09;;;;;;;31.20;22.40;;;;;;;8.50;76.65;100415.22;5016559;28;20097;-74
2022/04/22 01:33:35;;;;;;;23.83;20.55;;;;;;;8.36;76.40;100438.63;5016672;28;20034;-75
2022/04/22 01:36:01;;;;;;;28.60;20.50;;;;;;;8.60;75.75;100438.00;5017619;28;20190;-75
2022/04/22 01:38:27;;;;;;;29.08;20.60;;;;;;;8.34;76.02;100424.66;5014346;28;20042;-75
2022/04/22 01:40:54;;;;;;;31.85;20.83;;;;;;;8.48;77.20;100436.16;5016793;28;20080;-75
2022/04/22 01:43:20;;;;;;;25.55;19.83;;;;;;;8.51;76.42;100428.31;5001409;28;20060;-75
2022/04/22 01:45:47;;;;;;;28.15;20.67;;;;;;;8.25;76.41;100397.56;5016322;28;20484;-75
2022/04/22 01:48:13;;;;;;;30.05;19.58;;;;;;;8.48;76.90;100385.59;5020396;28;20041;-75
2022/04/22 01:50:38;;;;;;;23.38;18.60;;;;;;;8.38;76.70;100390.72;4993171;28;20058;-75
2022/04/22 01:53:06;;;;;;;28.90;19.98;;;;;;;8.56;76.91;100370.81;5021029;28;20148;-74
2022/04/22 01:55:33;;;;;;;27.60;21.20;;;;;;;8.71;75.95;100409.28;5019309;28;20065;-74
2022/04/22 01:57:59;;;;;;;28.27;20.42;;;;;;;8.16;75.14;100373.94;5003382;28;20042;-75
2022/04/22 02:00:24;;;;;;;26.70;20.15;;;;;;;8.59;75.41;100407.47;5002129;28;20056;-76
2022/04/22 02:02:50;;;;;;;33.88;21.13;;;;;;;8.52;76.13;100380.41;5020802;28;20378;-75
2022/04/22 02:05:15;;;;;;;22.90;19.38;;;;;;;8.61;74.90;100416.19;5021115;28;20041;-76
2022/04/22 02:07:41;;;;;;;33.00;21.38;;;;;;;8.60;76.30;100363.00;5019219;28;20042;-76
2022/04/22 02:10:09;;;;;;;25.60;20.08;;;;;;;8.71;76.42;100359.59;5003392;28;20076;-76
2022/04/22 02:12:34;;;;;;;23.60;19.63;;;;;;;8.76;76.26;100382.31;5003607;28;20124;-76
2022/04/22 02:15:00;;;;;;;26.10;20.85;;;;;;;8.50;77.23;100361.22;5021501;28;20104;-76
2022/04/22 02:17:27;;;;;;;26.75;21.42;;;;;;;8.43;76.52;100378.59;5017614;28;21065;-76
2022/04/22 02:19:54;;;;;;;25.15;20.08;;;;;;;8.38;77.93;100369.81;5022759;28;20512;-76
2022/04/22 02:22:22;;;;;;;35.80;19.88;;;;;;;8.29;78.01;100358.38;5020265;28;20048;-76
2022/04/22 02:24:47;;;;;;;24.42;20.45;;;;;;;8.51;77.41;100381.25;5020061;28;20185;-75
2022/04/22 02:29:57;;;;;;;23.90;19.58;;;;;;;8.27;77.48;100347.06;5021979;28;20064;-75
2022/04/22 02:32:22;;;;;;;21.73;18.98;;;;;;;8.32;78.14;100359.28;5019562;28;20049;-76
2022/04/22 02:34:48;;;;;;;28.27;20.42;;;;;;;8.22;77.43;100339.16;5018773;28;20037;-75
2022/04/22 02:37:13;;;;;;;29.83;19.83;;;;;;;8.09;77.63;100363.44;5002000;28;20133;-75
2022/04/22 02:39:38;;;;;;;20.35;18.25;;;;;;;7.96;77.48;100331.06;5017004;28;20057;-75
2022/04/22 02:47:33;;;;;;;26.88;19.38;;;;;;;8.47;77.27;100387.31;5017747;28;20133;-74
2022/04/22 02:49:58;;;;;;;31.75;21.30;;;;;;;8.33;77.85;100375.84;5019790;28;20548;-75
2022/04/22 02:52:23;;;;;;;25.60;19.13;;;;;;;8.41;77.94;100384.66;5018860;28;20049;-74
2022/04/22 02:54:49;;;;;;;24.73;20.67;;;;;;;8.11;79.38;100372.16;5018291;28;20032;-75
2022/04/22 02:57:15;;;;;;;27.48;21.20;;;;;;;8.35;79.23;100388.06;5019672;28;20125;-75
2022/04/22 02:59:42;;;;;;;26.75;19.30;;;;;;;8.23;78.94;100373.13;4999680;28;20756;-75
2022/04/22 03:02:08;;;;;;;26.52;19.38;;;;;;;8.45;77.49;100395.16;5017075;28;20053;-74
2022/04/22 03:04:34;;;;;;;28.40;20.70;;;;;;;8.32;77.55;100397.63;5013792;28;20057;-74
2022/04/22 03:06:59;;;;;;;28.02;20.45;;;;;;;8.59;76.68;100389.16;5018901;28;20100;-74
2022/04/22 03:09:25;;;;;;;29.02;23.27;;;;;;;8.60;76.93;100376.09;5018366;28;20034;-74
2022/04/22 03:11:50;;;;;;;28.58;21.33;;;;;;;8.72;77.85;100367.47;5018553;28;20156;-74
2022/04/22 03:14:19;;;;;;;26.80;20.02;;;;;;;8.73;78.77;100378.78;5012152;28;20041;-74
2022/04/22 03:16:45;;;;;;;24.15;19.40;;;;;;;8.92;77.87;100380.69;4980777;28;20045;-74
2022/04/22 03:19:10;;;;;;;31.40;21.25;;;;;;;8.84;77.69;100361.44;5016499;28;20041;-74
2022/04/22 03:21:36;;;;;;;26.63;19.75;;;;;;;9.12;77.95;100388.63;5014798;28;20036;-74
2022/04/22 03:24:02;;;;;;;24.50;19.67;;;;;;;8.91;77.53;100352.75;4998639;28;20037;-74
2022/04/22 03:26:29;;;;;;;30.45;20.67;;;;;;;8.77;77.76;100357.03;5016372;28;20064;-74
2022/04/22 03:28:57;;;;;;;29.48;19.48;;;;;;;9.11;78.57;100404.31;5012897;28;20485;-74
2022/04/22 03:31:23;;;;;;;24.17;19.92;;;;;;;8.90;78.17;100392.88;5008541;28;20048;-74
2022/04/22 03:33:49;;;;;;;30.08;20.48;;;;;;;8.84;79.01;100409.38;5015065;28;20025;-74
2022/04/22 03:36:16;;;;;;;20.90;18.45;;;;;;;8.73;79.11;100391.88;5023240;28;20029;-74
2022/04/22 03:38:43;;;;;;;27.35;20.27;;;;;;;8.97;78.59;100399.91;5018546;28;20038;-74
2022/04/22 03:41:10;;;;;;;26.20;20.73;;;;;;;9.15;78.14;100396.50;4999443;28;20053;-74
2022/04/22 03:43:35;;;;;;;20.80;17.58;;;;;;;8.90;78.26;100403.34;5016690;28;20046;-74
2022/04/22 03:46:01;;;;;;;24.75;19.67;;;;;;;8.95;77.23;100388.53;5019152;28;20464;-75
2022/04/22 03:48:27;;;;;;;26.52;22.80;;;;;;;8.47;77.32;100348.09;5019710;28;20097;-74
2022/04/22 03:50:53;;;;;;;22.50;19.65;;;;;;;8.53;77.18;100373.44;4991742;28;20682;-74
2022/04/22 03:53:18;;;;;;;23.75;21.25;;;;;;;8.64;74.80;100367.41;5020490;28;20053;-75
2022/04/22 03:55:44;;;;;;;18.90;16.98;;;;;;;8.77;73.80;100391.03;5015603;28;20041;-75
2022/04/22 03:58:11;;;;;;;25.17;18.92;;;;;;;8.96;72.06;100371.97;5018391;28;20076;-75
2022/04/22 04:00:43;;;;;;;23.63;20.17;;;;;;;9.07;74.62;100398.22;5016656;28;20163;-74
2022/04/22 04:03:31;;;;;;;25.13;18.63;;;;;;;9.02;75.18;100397.31;4996818;28;20029;-75
2022/04/22 04:05:56;;;;;;;20.08;17.98;;;;;;;8.54;74.62;100349.00;5013663;28;20037;-75
2022/04/22 04:08:24;;;;;;;21.95;19.65;;;;;;;9.06;74.56;100406.91;4998163;28;20727;-75
2022/04/22 04:16:21;;;;;;;22.98;18.90;;;;;;;9.01;75.01;100365.03;5018621;28;20048;-75
2022/04/22 04:18:47;;;;;;;23.60;19.02;;;;;;;8.64;73.75;100341.25;5018129;28;20102;-75
2022/04/22 04:23:56;;;;;;;27.10;19.73;;;;;;;9.31;71.90;100379.13;5015330;28;20113;-75
2022/04/22 04:26:24;;;;;;;21.95;19.15;;;;;;;9.18;74.11;100393.91;5000078;28;20041;-74
2022/04/22 04:28:50;;;;;;;21.30;18.50;;;;;;;8.93;73.39;100358.00;4999970;28;20095;-74
2022/04/22 04:31:16;;;;;;;21.88;18.65;;;;;;;9.21;72.17;100361.63;4998299;28;20045;-74
2022/04/22 04:33:42;;;;;;;29.67;21.90;;;;;;;9.22;72.21;100360.75;5015194;28;20044;-74
2022/04/22 04:36:10;;;;;;;23.90;20.88;;;;;;;9.18;71.58;100354.66;5018450;28;20560;-75
2022/04/22 04:38:37;;;;;;;26.25;19.00;;;;;;;9.44;72.27;100383.56;5018104;28;20516;-75
2022/04/22 04:41:04;;;;;;;25.35;21.00;;;;;;;9.31;74.35;100358.19;5001412;28;20045;-75
2022/04/22 04:43:31;;;;;;;25.83;20.35;;;;;;;9.75;74.85;100399.38;5016313;28;20575;-74
2022/04/22 04:45:57;;;;;;;21.35;18.48;;;;;;;9.77;72.80;100409.88;4999907;28;20041;-76
2022/04/22 04:48:23;;;;;;;24.80;19.50;;;;;;;9.80;71.64;100415.13;5018657;28;20026;-75
2022/04/22 04:50:51;;;;;;;24.58;19.25;;;;;;;9.65;69.76;100374.03;5019200;28;20099;-75
2022/04/22 04:53:21;;;;;;;27.58;20.52;;;;;;;10.02;70.19;100410.78;4999669;28;20052;-75
2022/04/22 04:55:47;;;;;;;32.38;21.25;;;;;;;9.98;70.25;100399.44;5014170;28;20714;-75
2022/04/22 04:58:13;;;;;;;26.00;19.83;;;;;;;9.93;70.23;100383.72;5016385;28;20503;-75
2022/04/22 05:00:39;;;;;;;28.08;18.52;;;;;;;9.88;68.69;100403.81;5017241;28;20025;-75
2022/04/22 05:03:05;;;;;;;25.60;20.27;;;;;;;9.84;67.27;100388.06;5015740;28;20552;-75
2022/04/22 05:05:31;;;;;;;32.05;19.67;;;;;;;10.03;67.95;100417.81;5016474;28;20025;-75
2022/04/22 05:07:58;;;;;;;22.20;18.75;;;;;;;9.79;70.09;100401.16;5016146;28;20101;-75
2022/04/22 05:10:26;;;;;;;24.45;19.92;;;;;;;9.78;68.01;100395.91;5015609;28;20290;-76
2022/04/22 05:13:03;;;;;;;30.77;17.98;;;;;;;9.58;67.37;100407.19;5018086;28;20026;-75
2022/04/22 05:15:31;;;;;;;27.05;22.45;;;;;;;9.67;66.73;100385.41;5019783;28;20033;-75
2022/04/22 05:18:02;;;;;;;35.05;21.45;;;;;;;9.81;68.05;100374.94;5001809;28;20104;-75
2022/04/22 05:20:29;;;;;;;28.67;20.15;;;;;;;9.93;68.25;100373.22;5014564;28;20120;-75
2022/04/22 05:22:55;;;;;;;23.85;19.52;;;;;;;10.17;69.09;100417.84;5014514;28;20057;-75
2022/04/22 05:25:22;;;;;;;29.25;18.52;;;;;;;9.98;68.79;100398.59;5019164;28;20046;-75
2022/04/22 05:27:48;;;;;;;26.92;20.65;;;;;;;10.13;67.00;100414.31;5001182;28;20140;-75
2022/04/22 05:32:59;;;;;;;25.95;19.05;;;;;;;10.08;68.07;100387.22;5000583;28;20062;-76
2022/04/22 05:35:27;;;;;;;27.25;18.30;;;;;;;10.23;66.68;100400.38;5002142;28;20414;-75
2022/04/22 05:38:06;;;;;;;25.52;19.05;;;;;;;10.20;65.86;100365.38;5021398;28;20382;-75
2022/04/22 05:40:37;;;;;;;25.58;19.02;;;;;;;10.23;66.45;100392.50;5023122;28;21229;-76
2022/04/22 05:43:06;;;;;;;20.73;17.40;;;;;;;10.40;67.04;100417.91;5001429;28;20050;-76
2022/04/22 05:45:32;;;;;;;23.83;18.35;;;;;;;10.26;67.49;100402.13;4986282;28;20078;-76
2022/04/22 05:47:58;;;;;;;26.50;19.10;;;;;;;9.85;66.64;100376.69;5016521;28;20041;-76
2022/04/22 05:50:24;;;;;;;24.90;21.05;;;;;;;10.22;68.44;100423.97;5001819;28;20124;-76
2022/04/22 05:52:50;;;;;;;30.70;21.27;;;;;;;10.25;66.91;100427.44;5001105;28;20050;-76
2022/04/22 05:55:21;;;;;;;38.40;20.00;;;;;;;10.14;67.65;100382.00;5022420;28;20045;-75
2022/04/22 05:57:48;;;;;;;35.10;23.70;;;;;;;10.19;68.35;100401.22;5023783;28;20038;-76
2022/04/22 06:00:16;;;;;;;48.03;23.50;;;;;;;9.98;67.49;100391.59;5018827;28;20033;-75
2022/04/22 06:02:45;;;;;;;36.38;23.13;;;;;;;10.25;67.69;100414.34;5001483;28;21047;-75
2022/04/22 06:05:15;;;;;;;30.58;23.08;;;;;;;9.94;68.43;100403.78;5019849;28;20064;-75
2022/04/22 06:07:42;;;;;;;30.00;23.35;;;;;;;9.89;68.49;100410.78;5021786;28;20671;-75
2022/04/22 06:12:54;;;;;;;30.80;25.38;;;;;;;10.52;67.89;100423.16;4994231;28;20056;-75
2022/04/22 06:15:20;;;;;;;33.95;24.52;;;;;;;10.25;69.47;100426.56;5021987;28;20438;-75
2022/04/22 06:17:46;;;;;;;25.38;22.42;;;;;;;9.99;69.18;100411.66;5019901;28;20047;-75
2022/04/22 06:20:12;;;;;;;36.83;25.45;;;;;;;10.54;67.05;100451.13;5020077;28;20033;-76
2022/04/22 06:22:38;;;;;;;33.22;22.92;;;;;;;10.53;67.06;100399.53;5002622;28;20389;-77
2022/04/22 06:25:04;;;;;;;36.60;23.98;;;;;;;10.84;67.61;100435.38;5021166;28;20041;-77
2022/04/22 06:27:37;;;;;;;29.55;21.73;;;;;;;10.75;65.85;100410.03;5022096;28;20033;-77
2022/04/22 06:30:09;;;;;;;33.78;25.15;;;;;;;10.60;66.11;100446.75;5020262;28;20103;-77
2022/04/22 06:32:36;;;;;;;29.15;23.95;;;;;;;10.85;64.77;100435.38;5017628;28;20501;-77
2022/04/22 06:35:03;;;;;;;35.38;22.45;;;;;;;11.04;66.13;100445.88;5017905;28;20048;-77
2022/04/22 06:37:42;;;;;;;30.58;23.88;;;;;;;11.18;67.78;100457.22;5018319;28;20479;-77
2022/04/22 06:45:49;;;;;;;38.15;26.20;;;;;;;10.98;66.09;100437.13;5017334;28;20036;-77
2022/04/22 06:48:18;;;;;;;48.00;28.33;;;;;;;11.24;65.22;100469.47;5018792;28;20033;-77
2022/04/22 06:50:53;;;;;;;28.70;24.20;;;;;;;11.26;66.21;100451.94;5018606;28;20528;-77
2022/04/22 06:53:20;;;;;;;30.45;23.27;;;;;;;11.36;69.80;100457.19;5018637;28;20052;-77
2022/04/22 06:55:47;;;;;;;22.92;19.48;;;;;;;11.25;68.14;100458.97;5018044;28;20133;-77
2022/04/22 06:58:15;;;;;;;25.95;19.95;;;;;;;11.29;66.88;100459.84;4999530;28;20046;-77
2022/04/22 07:00:42;;;;;;;32.55;19.73;;;;;;;11.38;65.84;100468.56;4997349;28;20034;-77
2022/04/22 07:03:09;;;;;;;24.23;18.65;;;;;;;11.32;67.76;100468.56;5020785;28;20029;-77
2022/04/22 07:05:37;;;;;;;22.42;19.90;;;;;;;11.23;66.21;100454.59;5016348;28;20148;-77
2022/04/22 07:08:05;;;;;;;24.95;20.65;;;;;;;11.21;66.89;100451.94;4983329;28;20037;-77
2022/04/22 07:10:31;;;;;;;30.38;18.77;;;;;;;11.38;69.33;100481.72;5020458;28;20046;-77
2022/04/22 07:12:58;;;;;;;39.78;19.35;;;;;;;11.18;70.50;100472.97;4991503;28;20517;-77
2022/04/22 07:15:24;;;;;;;22.08;19.70;;;;;;;10.93;73.04;100440.63;4998672;28;20037;-77
2022/04/22 07:17:50;;;;;;;20.67;18.50;;;;;;;10.93;74.15;100433.66;5017369;28;20120;-77
2022/04/22 07:20:17;;;;;;;26.77;18.70;;;;;;;11.11;71.48;100468.63;5019727;28;20172;-77
2022/04/22 07:22:42;;;;;;;20.55;18.45;;;;;;;10.88;72.44;100413.50;4999188;28;20107;-77
2022/04/22 07:25:09;;;;;;;24.45;20.25;;;;;;;10.75;73.62;100421.41;4999312;28;20042;-77
2022/04/22 07:27:38;;;;;;;28.15;21.90;;;;;;;10.77;75.63;100456.41;5017887;28;20034;-77
2022/04/22 07:30:07;;;;;;;26.20;23.23;;;;;;;10.77;78.06;100468.66;5000749;28;20114;-77
2022/04/22 07:32:41;;;;;;;26.73;22.02;;;;;;;10.59;81.16;100439.78;5019810;28;20042;-77
2022/04/22 07:35:13;;;;;;;26.80;22.85;;;;;;;10.74;81.26;100461.63;5001309;28;20544;-77
2022/04/22 07:37:45;;;;;;;26.98;22.15;;;;;;;10.77;78.58;100459.03;5018151;28;20265;-76
2022/04/22 07:40:12;;;;;;;42.33;26.40;;;;;;;9.93;79.98;100396.81;5014644;28;20052;-77
2022/04/22 07:42:42;;;;;;;32.60;25.88;;;;;;;10.19;81.09;100439.69;5001093;28;20081;-77
2022/04/22 07:47:52;;;;;;;43.88;33.80;;;;;;;9.35;84.01;100380.03;5018090;28;20509;-77
2022/04/22 07:50:18;;;;;;;41.25;36.15;;;;;;;9.67;83.89;100414.22;4986566;28;20045;-77
2022/04/22 07:52:45;;;;;;;47.72;35.72;;;;;;;10.06;83.01;100428.28;5002981;28;20045;-77
2022/04/22 07:55:13;;;;;;;38.08;33.95;;;;;;;10.20;83.38;100442.31;5000151;28;21161;-77
2022/04/22 07:57:41;;;;;;;45.95;35.83;;;;;;;9.96;84.42;100393.31;4999987;28;20033;-77
2022/04/22 08:00:08;;;;;;;51.20;36.55;;;;;;;10.32;85.27;100434.50;5018680;28;20080;-76
2022/04/22 08:02:34;;;;;;;43.42;34.05;;;;;;;10.14;85.91;100392.50;5016723;28;20056;-75
2022/04/22 08:04:59;;;;;;;48.53;33.92;;;;;;;10.42;85.12;100452.84;5000270;28;20060;-76
2022/04/22 08:07:25;;;;;;;44.08;32.67;;;;;;;10.40;84.56;100454.63;5018987;28;20053;-75
2022/04/22 08:09:52;;;;;;;32.40;27.73;;;;;;;10.39;83.52;100453.72;5019776;28;20330;-75
2022/04/22 08:12:21;;;;;;;33.22;28.50;;;;;;;10.21;82.56;100423.09;4996455;28;20042;-74
2022/04/22 08:14:47;;;;;;;34.00;27.52;;;;;;;10.44;82.84;100446.75;5001279;28;20041;-76
2022/04/22 08:17:12;;;;;;;32.03;27.75;;;;;;;10.24;82.47;100451.06;4996164;28;20397;-76
2022/04/22 08:19:43;;;;;;;33.70;28.98;;;;;;;10.25;82.09;100430.06;5001176;28;20520;-76
2022/04/22 08:22:09;;;;;;;39.45;28.80;;;;;;;10.15;83.08;100425.69;5014286;28;20045;-76
2022/04/22 08:24:34;;;;;;;34.15;28.50;;;;;;;10.21;82.37;100409.09;4983220;28;20044;-76
2022/04/22 08:27:00;;;;;;;34.10;28.08;;;;;;;10.53;82.10;100459.00;5018571;28;20017;-76
2022/04/22 08:29:25;;;;;;;38.33;29.08;;;;;;;10.51;83.15;100450.25;5001572;28;20158;-76
2022/04/22 08:31:52;;;;;;;35.10;26.67;;;;;;;10.57;83.30;100440.63;4999823;28;20165;-76
2022/04/22 08:34:24;;;;;;;23.27;20.35;;;;;;;10.37;81.40;100421.38;4999780;28;20088;-76
2022/04/22 08:36:50;;;;;;;25.08;22.23;;;;;;;10.45;81.60;100408.28;5014845;28;20109;-76
2022/04/22 08:39:16;;;;;;;24.50;21.90;;;;;;;10.65;82.03;100432.78;5017026;28;20038;-75
2022/04/22 08:41:49;;;;;;;25.00;19.17;;;;;;;10.46;81.80;100384.66;4999204;28;20147;-75
2022/04/22 08:44:23;;;;;;;24.58;19.38;;;;;;;10.59;83.17;100411.78;5013763;28;20049;-75
2022/04/22 08:52:21;;;;;;;15.95;13.75;;;;;;;11.08;79.92;100413.50;5000713;28;20084;-74
2022/04/22 08:54:49;;;;;;;19.83;11.93;;;;;;;11.12;78.53;100367.94;5002842;28;20039;-74
2022/04/22 08:57:15;;;;;;;17.60;13.80;;;;;;;11.48;78.81;100416.88;5006260;28;20060;-76
2022/04/22 08:59:41;;;;;;;15.88;13.48;;;;;;;12.06;76.80;100417.47;4986888;28;20107;-74
2022/04/22 09:02:08;;;;;;;16.98;13.70;;;;;;;11.90;76.96;100396.56;5002973;28;20061;-73
2022/04/22 09:04:34;;;;;;;23.48;17.55;;;;;;;12.11;76.39;100378.91;4993447;28;20061;-74
2022/04/22 09:07:01;;;;;;;17.25;14.27;;;;;;;12.94;73.50;100393.97;4992431;28;20041;-75
2022/04/22 09:09:29;;;;;;;27.50;17.60;;;;;;;10.88;79.30;100374.13;4999594;28;20025;-77
2022/04/22 09:12:07;;;;;;;22.58;18.50;;;;;;;10.66;78.92;100342.69;5006798;28;20393;-72
2022/04/22 09:14:33;;;;;;;32.85;19.60;;;;;;;10.81;79.86;100351.41;5007141;28;20057;-72
2022/04/22 09:16:58;;;;;;;23.00;18.80;;;;;;;10.67;79.95;100343.53;4989473;28;20069;-72
2022/04/22 09:19:25;;;;;;;32.72;21.67;;;;;;;11.06;79.67;100375.84;4989041;28;20057;-71
2022/04/22 09:21:57;;;;;;;40.38;21.77;;;;;;;10.63;80.63;100341.78;4995823;28;20041;-73
2022/04/22 09:24:23;;;;;;;23.85;18.88;;;;;;;12.21;75.32;100331.44;5003171;28;20045;-72
2022/04/22 09:27:03;;;;;;;31.17;22.42;;;;;;;11.10;78.92;100335.59;4995181;28;20105;-73
2022/04/22 09:29:29;;;;;;;23.33;19.88;;;;;;;11.11;79.15;100366.19;4999597;28;20049;-73
2022/04/22 09:31:55;;;;;;;27.08;18.67;;;;;;;11.30;79.31;100322.34;4985550;28;20044;-73
2022/04/22 09:34:36;;;;;;;29.00;20.95;;;;;;;11.19;78.77;100349.56;4989866;28;20477;-73
2022/04/22 09:42:55;;;;;;;25.58;21.67;;;;;;;11.39;78.32;100346.81;5009531;28;20137;-74
2022/04/22 09:45:21;;;;;;;27.40;23.73;;;;;;;11.80;78.57;100364.16;5010849;28;20175;-74
2022/04/22 09:47:57;;;;;;;24.80;19.42;;;;;;;13.14;74.08;100389.38;5009770;28;20072;-75
2022/04/22 09:50:42;;;;;;;29.90;23.73;;;;;;;11.69;78.92;100365.09;4981193;28;20987;-75
2022/04/22 09:53:10;;;;;;;30.48;26.92;;;;;;;11.96;79.08;100364.06;4980140;28;20050;-75
2022/04/22 09:55:47;;;;;;;23.50;20.00;;;;;;;12.13;77.68;100353.47;4988536;28;20065;-75
2022/04/22 09:58:12;;;;;;;29.38;17.60;;;;;;;11.91;77.39;100348.31;4985169;28;20506;-76
2022/04/22 10:00:39;;;;;;;24.10;20.67;;;;;;;11.93;78.41;100380.75;4995995;28;20038;-75
2022/04/22 10:03:08;;;;;;;28.20;21.38;;;;;;;12.17;80.01;100363.06;4984848;28;20148;-75
2022/04/22 10:05:35;;;;;;;25.83;20.95;;;;;;;12.38;78.97;100360.25;4985799;28;20097;-75
2022/04/22 10:08:03;;;;;;;22.23;19.90;;;;;;;10.96;81.34;100280.50;5002335;28;20081;-75
2022/04/22 10:10:38;;;;;;;26.38;20.83;;;;;;;11.28;81.69;100319.72;5000451;28;20053;-76
2022/04/22 10:13:04;;;;;;;24.33;20.52;;;;;;;11.17;82.43;100332.06;4987891;28;20049;-76
2022/04/22 10:15:37;;;;;;;28.23;19.50;;;;;;;11.83;80.66;100361.50;4988932;28;20026;-78
2022/04/22 10:18:04;;;;;;;24.55;19.13;;;;;;;11.97;80.07;100313.25;4983781;28;20046;-75
2022/04/22 10:20:32;;;;;;;21.35;19.08;;;;;;;12.34;80.18;100350.66;5004380;28;20049;-74
2022/04/22 10:22:57;;;;;;;23.92;20.15;;;;;;;12.49;78.89;100325.94;4980031;28;20189;-76
2022/04/22 10:25:23;;;;;;;25.13;21.40;;;;;;;12.64;79.03;100349.50;5004205;28;20061;-76
2022/04/22 10:27:51;;;;;;;27.15;20.08;;;;;;;12.51;77.51;100318.06;5007253;28;21461;-74
2022/04/22 10:30:17;;;;;;;29.73;22.95;;;;;;;12.27;77.98;100306.88;4989987;28;21222;-73
2022/04/22 10:32:47;;;;;;;26.08;21.27;;;;;;;13.11;77.18;100336.75;5015108;28;20048;-74
2022/04/22 10:35:13;;;;;;;29.40;20.77;;;;;;;12.94;77.40;100346.56;5017821;28;20036;-73
2022/04/22 10:37:41;;;;;;;23.33;20.48;;;;;;;12.86;76.77;100292.22;4993279;28;20029;-78
2022/04/22 10:40:22;;;;;;;21.85;18.67;;;;;;;12.67;77.15;100314.38;4997794;28;20058;-73
2022/04/22 10:42:51;;;;;;;27.08;21.98;;;;;;;12.88;76.75;100308.03;5001095;28;20048;-74
2022/04/22 10:48:24;;;;;;;21.27;17.92;;;;;;;12.54;78.27;100286.44;4953163;28;20060;-74
2022/04/22 10:51:03;;;;;;;19.25;17.30;;;;;;;12.69;77.54;100283.66;5002327;28;20060;-74
2022/04/22 10:53:33;;;;;;;19.63;17.33;;;;;;;12.88;77.27;100301.00;5003491;28;20034;-73
2022/04/22 10:56:24;;;;;;;23.95;18.10;;;;;;;12.97;77.49;100299.13;4983023;28;20058;-76
2022/04/22 10:59:15;;;;;;;21.85;17.90;;;;;;;13.07;76.41;100263.91;4986476;28;20037;-74
2022/04/22 11:01:40;;;;;;;20.98;16.52;;;;;;;13.30;75.13;100240.78;5007732;28;20145;-75
2022/04/22 11:04:24;;;;;;;17.15;14.70;;;;;;;13.27;74.76;100268.88;4993237;28;20511;-74
2022/04/22 11:06:50;;;;;;;20.17;15.73;;;;;;;13.78;72.93;100300.72;5009823;28;20056;-74
2022/04/22 11:09:29;;;;;;;18.80;16.33;;;;;;;14.21;72.17;100267.50;5003950;28;20496;-74
2022/04/22 11:11:56;;;;;;;18.35;15.75;;;;;;;14.09;72.33;100271.22;5013751;28;20541;-76
2022/04/22 11:14:25;;;;;;;22.25;15.73;;;;;;;14.38;72.68;100261.94;5005590;28;20052;-74
2022/04/22 11:16:51;;;;;;;15.98;12.80;;;;;;;13.83;72.17;100242.63;4999452;28;20112;-74
2022/04/22 11:19:17;;;;;;;17.33;13.55;;;;;;;13.46;73.28;100232.63;5011344;28;20033;-78
2022/04/22 11:21:44;;;;;;;15.65;13.05;;;;;;;14.02;72.13;100241.41;4992523;28;20092;-75
2022/04/22 11:24:15;;;;;;;17.23;12.40;;;;;;;14.12;71.91;100271.19;4991041;28;20049;-75
2022/04/22 11:26:44;;;;;;;23.48;13.75;;;;;;;13.99;72.69;100282.81;5002747;28;20038;-73
2022/04/22 11:29:10;;;;;;;17.63;13.45;;;;;;;13.74;72.12;100246.25;5010435;28;20045;-73
2022/04/22 11:31:37;;;;;;;17.13;13.73;;;;;;;14.48;72.08;100274.91;4987598;28;20045;-74
2022/04/22 11:34:10;;;;;;;17.98;15.27;;;;;;;15.09;71.17;100235.03;5005735;28;20045;-73
2022/04/22 11:36:43;;;;;;;15.98;12.98;;;;;;;15.51;68.52;100240.25;5012923;28;20050;-73
2022/04/22 11:39:15;;;;;;;18.60;10.77;;;;;;;15.43;67.18;100264.25;4970873;28;20078;-73
2022/04/22 11:41:57;;;;;;;17.08;11.10;;;;;;;15.40;69.02;100236.09;5015786;28;20086;-73
2022/04/22 11:44:24;;;;;;;12.52;9.75;;;;;;;15.48;66.57;100229.78;4981311;28;20048;-73
2022/04/22 11:46:51;;;;;;;12.50;9.57;;;;;;;15.55;67.89;100261.31;4996254;28;20048;-74
2022/04/22 11:49:17;;;;;;;15.38;10.15;;;;;;;15.65;68.76;100254.03;4976839;28;23180;-74
2022/04/22 11:51:42;;;;;;;12.85;9.23;;;;;;;15.46;69.49;100216.56;4967887;28;20057;-73
2022/04/22 11:54:08;;;;;;;10.50;8.80;;;;;;;15.66;68.43;100231.09;4996697;28;20057;-73
2022/04/22 11:56:36;;;;;;;16.30;10.73;;;;;;;15.57;68.60;100233.06;4993795;28;20041;-73
2022/04/22 11:59:02;;;;;;;11.10;8.55;;;;;;;15.54;68.24;100200.50;4996091;28;20038;-74
2022/04/22 12:08:00;;;;;;;9.73;8.73;;;;;;;15.49;69.75;100229.72;4996774;28;20490;-73
2022/04/22 12:10:01;;;;;;;16.38;9.82;;;;;;;15.35;70.15;100205.38;4994708;28;20057;-73
2022/04/22 12:12:31;;;;;;;14.93;10.07;;;;;;;15.48;69.92;100198.03;4996106;28;20041;-73